Time;durP1;ratioP1;P1;durP2;ratioP2;P2;SDS_P1;SDS_P2;PMS_P1;PMS_P2;Temp;Humidity;BMP_temperature;BMP_pressure;BME280_temperature;BME280_humidity;BME280_pressure;Samples;Min_cycle;Max_cycle;Signal;HPM_P1;HPM_P2
2021/12/05 00:23:47;;;;;;;15.40;1.90;;;4.10;99.90;;;;;;4068358;29;20179;-93
2021/12/05 00:25:52;;;;;;;11.63;1.80;;;4.10;99.90;;;;;;4068132;29;20180;-92
2021/12/05 00:28:14;;;;;;;10.47;1.27;;;4.10;99.90;;;;;;4052704;29;20264;-93
2021/12/05 00:32:49;;;;;;;12.47;1.27;;;4.00;99.90;;;;;;4052725;29;20177;-92
2021/12/05 00:45:01;;;;;;;9.70;1.07;;;4.00;99.90;;;;;;4070747;29;20200;-92
2021/12/05 01:03:07;;;;;;;8.53;1.60;;;4.00;99.90;;;;;;4070508;29;20173;-93
2021/12/05 11:22:46;;;;;;;6.03;4.57;;;7.20;99.90;;;;;;4810538;23;20308;-90
2021/12/05 11:25:05;;;;;;;8.37;3.10;;;7.30;99.90;;;;;;4100058;28;20238;-90
2021/12/05 11:27:11;;;;;;;8.33;5.07;;;7.20;99.90;;;;;;4101082;29;20194;-91
2021/12/05 11:29:12;;;;;;;9.48;4.63;;;7.10;99.90;;;;;;4100187;29;20702;-91
2021/12/05 11:31:27;;;;;;;4.95;3.50;;;7.30;99.90;;;;;;4116270;28;20182;-91
2021/12/05 11:33:28;;;;;;;7.20;5.03;;;7.50;99.90;;;;;;4116128;28;20512;-93
2021/12/05 11:35:47;;;;;;;7.63;5.20;;;7.60;99.90;;;;;;4100276;29;20222;-92
2021/12/05 11:37:59;;;;;;;8.60;6.27;;;7.60;99.90;;;;;;4100130;29;20265;-90
2021/12/05 11:40:06;;;;;;;10.70;6.37;;;7.60;99.90;;;;;;4115947;28;20557;-91
2021/12/05 11:42:18;;;;;;;5.57;3.40;;;7.60;99.90;;;;;;4099964;29;20306;-92
2021/12/05 11:44:21;;;;;;;7.57;4.63;;;7.70;99.90;;;;;;4115851;28;20642;-90
2021/12/05 11:46:28;;;;;;;7.18;3.50;;;7.80;99.90;;;;;;4100168;29;20191;-92
2021/12/05 11:48:39;;;;;;;11.25;6.32;;;7.70;99.90;;;;;;4099925;29;20274;-90
2021/12/05 11:50:39;;;;;;;5.95;2.90;;;7.60;99.90;;;;;;4100104;29;20174;-90
2021/12/05 11:52:40;;;;;;;5.40;3.63;;;7.50;99.90;;;;;;4115759;28;20178;-90
2021/12/05 11:54:47;;;;;;;4.80;3.67;;;7.40;99.90;;;;;;4099918;29;20226;-91
2021/12/05 11:56:55;;;;;;;4.87;2.77;;;7.30;99.90;;;;;;4100093;29;20158;-91
2021/12/05 11:59:16;;;;;;;6.03;3.43;;;7.10;99.90;;;;;;4100326;29;20302;-91
2021/12/05 12:01:17;;;;;;;6.63;3.80;;;7.00;99.90;;;;;;4099941;29;20246;-90
2021/12/05 12:03:35;;;;;;;6.30;4.33;;;7.30;99.90;;;;;;4100154;29;20183;-90
2021/12/05 12:05:37;;;;;;;8.52;4.07;;;7.60;99.90;;;;;;4100061;29;20198;-91
2021/12/05 12:07:46;;;;;;;5.80;3.20;;;7.80;99.90;;;;;;4100023;29;20339;-91
2021/12/05 12:09:50;;;;;;;6.37;3.53;;;7.90;99.90;;;;;;4116253;28;20220;-90
2021/12/05 12:11:52;;;;;;;6.47;3.80;;;8.00;99.90;;;;;;4099785;28;20187;-90
2021/12/05 12:13:54;;;;;;;5.73;3.60;;;8.10;99.90;;;;;;4099867;29;20266;-91
2021/12/05 12:15:59;;;;;;;5.85;3.40;;;8.20;99.90;;;;;;4099754;29;20210;-90
2021/12/05 12:18:08;;;;;;;8.83;3.20;;;8.00;99.90;;;;;;4100005;29;20209;-90
2021/12/05 12:20:12;;;;;;;4.50;3.30;;;8.10;99.90;;;;;;4099916;29;20186;-90
2021/12/05 12:22:14;;;;;;;3.83;2.67;;;8.20;99.90;;;;;;4099771;29;20730;-90
2021/12/05 12:24:17;;;;;;;7.75;3.03;;;8.40;99.90;;;;;;4099829;29;20214;-91
2021/12/05 12:26:18;;;;;;;8.15;3.60;;;8.50;99.90;;;;;;4099949;29;20183;-90
2021/12/05 12:28:20;;;;;;;5.93;3.20;;;8.40;99.90;;;;;;4099694;29;20457;-90
2021/12/05 12:30:27;;;;;;;4.40;2.70;;;8.40;99.90;;;;;;4100208;29;20183;-90
2021/12/05 12:32:44;;;;;;;4.38;2.97;;;8.50;99.90;;;;;;4115897;28;20170;-90
2021/12/05 12:34:45;;;;;;;4.75;2.70;;;8.30;99.90;;;;;;4099503;29;20203;-90
2021/12/05 12:36:57;;;;;;;3.50;2.53;;;8.40;99.90;;;;;;4101159;28;20266;-89
2021/12/05 12:39:03;;;;;;;6.30;2.60;;;8.50;99.90;;;;;;4103233;29;20178;-89
2021/12/05 12:41:22;;;;;;;2.55;2.13;;;8.50;99.90;;;;;;4102794;29;20195;-90
2021/12/05 12:43:55;;;;;;;3.08;2.03;;;8.60;99.90;;;;;;4118584;28;20174;-91
2021/12/05 12:45:56;;;;;;;3.13;2.00;;;8.60;99.90;;;;;;4102451;29;20190;-90
2021/12/05 12:47:59;;;;;;;3.60;2.47;;;8.60;99.90;;;;;;4102666;29;20636;-93
2021/12/05 12:50:40;;;;;;;3.95;2.50;;;8.50;99.90;;;;;;4118404;28;20174;-92
2021/12/05 12:52:58;;;;;;;4.57;2.63;;;8.60;99.90;;;;;;4103985;29;20340;-91
2021/12/05 12:54:59;;;;;;;3.08;2.05;;;8.60;99.90;;;;;;4102289;29;20195;-91
2021/12/05 12:57:11;;;;;;;3.38;1.95;;;8.70;99.90;;;;;;4102482;29;20277;-92
2021/12/05 12:59:15;;;;;;;6.47;2.22;;;8.70;99.90;;;;;;4118105;28;20170;-91
2021/12/05 13:11:17;;;;;;;4.22;2.95;;;8.70;99.90;;;;;;4134347;28;20304;-91
2021/12/05 13:13:26;;;;;;;4.97;2.97;;;8.50;99.90;;;;;;4102472;29;20210;-90
2021/12/05 13:15:34;;;;;;;5.35;2.75;;;8.50;99.90;;;;;;4102146;29;20198;-91
2021/12/05 13:17:38;;;;;;;3.70;2.67;;;8.30;99.90;;;;;;4118241;28;20657;-91
2021/12/05 13:19:55;;;;;;;7.95;4.63;;;8.30;99.90;;;;;;4118030;28;20181;-91
2021/12/05 13:22:06;;;;;;;7.53;3.08;;;8.20;99.90;;;;;;4102089;29;20214;-91
2021/12/05 13:24:23;;;;;;;3.70;2.53;;;8.30;99.90;;;;;;4101913;28;20202;-93
2021/12/05 13:26:35;;;;;;;6.40;3.95;;;8.30;99.90;;;;;;4117953;28;20184;-92
2021/12/05 13:28:44;;;;;;;4.38;2.92;;;8.40;99.90;;;;;;4102334;29;20246;-91
2021/12/05 13:30:45;;;;;;;6.10;3.17;;;8.30;99.90;;;;;;4102156;29;20293;-91
2021/12/05 13:32:46;;;;;;;5.75;3.08;;;8.30;99.90;;;;;;4102042;29;20183;-92
2021/12/05 13:34:50;;;;;;;5.57;2.60;;;8.40;99.90;;;;;;4101987;29;20351;-91
2021/12/05 13:36:51;;;;;;;3.28;2.50;;;8.40;99.90;;;;;;4118002;28;20523;-91
2021/12/05 13:38:52;;;;;;;3.83;2.35;;;8.60;99.90;;;;;;4117704;28;20175;-92
2021/12/05 13:40:56;;;;;;;4.90;2.70;;;8.60;99.90;;;;;;4101879;29;20631;-91
2021/12/05 13:43:06;;;;;;;3.63;2.67;;;8.40;99.90;;;;;;4101997;29;20190;-90
2021/12/05 13:45:13;;;;;;;3.78;2.50;;;8.10;99.90;;;;;;4117657;28;20190;-91
2021/12/05 13:47:16;;;;;;;3.28;2.30;;;7.50;99.90;;;;;;4101951;29;20253;-91
2021/12/05 13:49:36;;;;;;;6.07;2.87;;;7.20;99.90;;;;;;4117226;28;20226;-91
2021/12/05 13:51:38;;;;;;;3.97;2.80;;;6.90;99.90;;;;;;4102069;29;20186;-91
2021/12/05 13:53:49;;;;;;;4.22;2.58;;;6.80;99.90;;;;;;4117742;28;20651;-91
2021/12/05 13:55:53;;;;;;;11.10;5.50;;;6.90;99.90;;;;;;4101884;29;20269;-90
2021/12/05 13:58:13;;;;;;;6.80;3.97;;;7.00;99.90;;;;;;4101547;29;20188;-91
2021/12/05 14:00:44;;;;;;;6.47;4.57;;;7.00;99.90;;;;;;4101408;29;20205;-91
2021/12/05 14:02:53;;;;;;;6.23;4.00;;;7.10;99.90;;;;;;4101529;29;20285;-90
2021/12/05 14:04:54;;;;;;;6.10;3.80;;;7.00;99.90;;;;;;4101275;29;20238;-91
2021/12/05 14:07:01;;;;;;;6.57;4.35;;;7.10;99.90;;;;;;4101214;29;20175;-93
2021/12/05 14:09:22;;;;;;;6.77;3.70;;;7.10;99.90;;;;;;4101172;29;20562;-92
2021/12/05 14:11:24;;;;;;;5.87;3.70;;;7.10;99.90;;;;;;4117696;28;20174;-92
2021/12/05 14:13:25;;;;;;;22.23;11.07;;;6.90;99.90;;;;;;4101619;29;20175;-91
2021/12/05 14:15:26;;;;;;;12.13;7.10;;;7.00;99.90;;;;;;4101270;29;20693;-91
2021/12/05 14:17:37;;;;;;;6.40;4.03;;;7.10;99.90;;;;;;4101162;29;20179;-91
2021/12/05 14:19:40;;;;;;;7.77;5.63;;;7.10;99.90;;;;;;4101248;29;20261;-91
2021/12/05 14:21:47;;;;;;;7.73;4.90;;;6.90;99.90;;;;;;4101062;29;20675;-92
2021/12/05 14:23:49;;;;;;;12.90;6.83;;;7.00;99.90;;;;;;4116809;28;20186;-92
2021/12/05 14:25:50;;;;;;;11.60;7.03;;;6.70;99.90;;;;;;4100943;29;20296;-93
2021/12/05 14:27:58;;;;;;;8.60;6.60;;;6.50;99.90;;;;;;4101070;29;20183;-91
2021/12/05 14:29:59;;;;;;;7.87;4.83;;;6.40;99.90;;;;;;4100678;29;20273;-92
2021/12/05 14:32:06;;;;;;;10.00;5.60;;;6.30;99.90;;;;;;4100681;29;20261;-91
2021/12/05 14:34:09;;;;;;;7.20;4.90;;;6.40;99.90;;;;;;4100643;29;20693;-93
2021/12/05 14:36:22;;;;;;;5.67;4.37;;;6.30;99.90;;;;;;4116954;28;20171;-93
2021/12/05 14:38:23;;;;;;;14.13;4.87;;;6.30;99.90;;;;;;4116996;28;20166;-92
2021/12/05 14:40:30;;;;;;;7.43;4.87;;;6.40;99.90;;;;;;4116679;28;20291;-94
2021/12/05 14:42:37;;;;;;;8.03;5.23;;;6.70;99.90;;;;;;4100730;28;20217;-92
2021/12/05 14:44:39;;;;;;;6.97;5.20;;;6.80;99.90;;;;;;4100273;29;20198;-92
2021/12/05 14:46:54;;;;;;;15.13;7.97;;;6.90;99.90;;;;;;4100347;29;20183;-92
2021/12/05 14:48:57;;;;;;;9.10;6.03;;;6.90;99.90;;;;;;4100381;29;20167;-94
2021/12/05 14:51:00;;;;;;;13.53;8.83;;;6.80;99.90;;;;;;4100384;29;20175;-92
2021/12/05 14:53:03;;;;;;;9.83;6.93;;;6.80;99.90;;;;;;4100220;29;20178;-92
2021/12/05 14:55:10;;;;;;;13.90;7.27;;;6.80;99.90;;;;;;4102477;28;20194;-93
2021/12/05 14:57:23;;;;;;;12.80;6.97;;;6.50;99.90;;;;;;4100211;29;20266;-94
2021/12/05 14:59:25;;;;;;;11.47;7.30;;;6.50;99.90;;;;;;4116211;28;20176;-93
2021/12/05 15:01:30;;;;;;;9.60;6.90;;;6.60;99.90;;;;;;4116307;28;20217;-93
2021/12/05 15:03:34;;;;;;;9.70;6.23;;;6.80;99.90;;;;;;4100905;28;20559;-95
2021/12/05 15:05:38;;;;;;;8.53;6.10;;;6.70;99.90;;;;;;4116107;28;20292;-92
2021/12/05 15:07:39;;;;;;;10.57;6.27;;;6.80;99.90;;;;;;4100609;29;20222;-93
2021/12/05 15:09:43;;;;;;;12.37;6.60;;;6.90;99.90;;;;;;4100906;29;20186;-92
2021/12/05 15:12:00;;;;;;;11.17;6.83;;;7.00;99.90;;;;;;4100579;29;20175;-93
2021/12/05 15:14:05;;;;;;;11.27;6.67;;;6.90;99.90;;;;;;4100555;29;20202;-92
2021/12/05 15:16:06;;;;;;;9.10;6.23;;;6.80;99.90;;;;;;4116800;28;20170;-93
2021/12/05 15:18:16;;;;;;;7.93;6.00;;;6.80;99.90;;;;;;4116007;28;20170;-92
2021/12/05 15:20:21;;;;;;;9.03;6.97;;;6.80;99.90;;;;;;4099563;28;20181;-92
2021/12/05 15:22:22;;;;;;;10.97;6.47;;;6.80;99.90;;;;;;4100047;28;20257;-91
2021/12/05 15:24:27;;;;;;;11.90;6.70;;;6.70;99.90;;;;;;4116082;28;20194;-92
2021/12/05 15:26:32;;;;;;;15.57;9.60;;;6.70;99.90;;;;;;4100156;28;20229;-92
2021/12/05 15:28:35;;;;;;;22.80;14.53;;;6.60;99.90;;;;;;4116056;28;20174;-92
2021/12/05 15:30:39;;;;;;;15.80;9.43;;;6.50;99.90;;;;;;4116269;28;20201;-92
2021/12/05 15:32:41;;;;;;;13.73;8.10;;;6.40;99.90;;;;;;4116222;28;20273;-91
2021/12/05 15:34:42;;;;;;;16.80;8.60;;;6.30;99.90;;;;;;4100183;29;20199;-92
2021/12/05 15:36:42;;;;;;;10.53;7.80;;;6.20;99.90;;;;;;4100056;29;20214;-91
2021/12/05 15:38:43;;;;;;;12.07;8.07;;;6.20;99.90;;;;;;4100036;29;20242;-92
2021/12/05 15:40:46;;;;;;;13.07;8.20;;;6.20;99.90;;;;;;4100224;29;20214;-91
2021/12/05 15:42:48;;;;;;;17.50;10.45;;;6.20;99.90;;;;;;4100120;29;20226;-92
2021/12/05 15:44:51;;;;;;;15.10;10.80;;;6.30;99.90;;;;;;4099707;29;20195;-92
2021/12/05 15:47:10;;;;;;;21.00;12.30;;;6.20;99.90;;;;;;4116087;28;20170;-92
2021/12/05 15:49:10;;;;;;;18.37;11.97;;;6.10;99.90;;;;;;4116029;28;20178;-92
2021/12/05 15:51:11;;;;;;;16.57;11.77;;;6.00;99.90;;;;;;4116003;28;20204;-89
2021/12/05 15:53:12;;;;;;;16.77;10.87;;;6.10;99.90;;;;;;4100092;29;20171;-93
2021/12/05 15:55:24;;;;;;;15.93;9.67;;;6.10;99.90;;;;;;4099660;29;20207;-93
2021/12/05 15:57:34;;;;;;;14.77;10.73;;;6.20;99.90;;;;;;4099619;29;20167;-94
2021/12/05 15:59:39;;;;;;;17.60;11.47;;;6.10;99.90;;;;;;4115575;28;20189;-92
2021/12/05 16:01:42;;;;;;;16.37;10.23;;;6.20;99.90;;;;;;4115563;28;20213;-91
2021/12/05 16:03:45;;;;;;;13.87;9.73;;;6.10;99.90;;;;;;4099785;29;20265;-91
2021/12/05 16:05:53;;;;;;;16.40;10.73;;;6.20;99.90;;;;;;4099763;28;20202;-92
2021/12/05 16:08:03;;;;;;;18.33;11.10;;;6.40;99.90;;;;;;4115919;28;20201;-92
2021/12/05 16:10:10;;;;;;;14.87;9.60;;;6.30;99.90;;;;;;4099722;29;20187;-93
2021/12/05 16:12:17;;;;;;;14.87;8.80;;;6.40;99.90;;;;;;4101959;28;20175;-92
2021/12/05 16:14:36;;;;;;;15.43;9.53;;;6.50;99.90;;;;;;4102782;29;20242;-92
2021/12/05 16:16:37;;;;;;;19.43;11.53;;;6.50;99.90;;;;;;4102937;29;20178;-91
2021/12/05 16:18:40;;;;;;;23.13;14.07;;;6.40;99.90;;;;;;4103431;29;20607;-93
2021/12/05 16:20:44;;;;;;;20.53;12.47;;;6.30;99.90;;;;;;4102824;29;20218;-91
2021/12/05 16:23:10;;;;;;;19.23;12.40;;;6.30;99.90;;;;;;4103026;29;20190;-91
2021/12/05 16:25:18;;;;;;;26.80;15.50;;;6.30;99.90;;;;;;4102754;29;20199;-91
2021/12/05 16:27:19;;;;;;;22.30;14.07;;;6.30;99.90;;;;;;4103086;29;20512;-92
2021/12/05 16:29:24;;;;;;;25.10;14.37;;;6.20;99.90;;;;;;4106383;29;20186;-91
2021/12/05 16:31:30;;;;;;;22.23;13.90;;;6.10;99.90;;;;;;4124591;28;20166;-93
2021/12/05 16:33:31;;;;;;;21.13;14.30;;;6.00;99.90;;;;;;4118868;28;20261;-91
2021/12/05 16:35:48;;;;;;;24.50;14.70;;;6.00;99.90;;;;;;4103101;29;20203;-92
2021/12/05 16:37:49;;;;;;;25.07;15.80;;;6.00;99.90;;;;;;4102799;29;20267;-91
2021/12/05 16:39:55;;;;;;;30.17;18.87;;;6.00;99.90;;;;;;4118658;28;20171;-93
2021/12/05 16:42:06;;;;;;;43.03;25.10;;;6.00;99.90;;;;;;4102942;29;20626;-93
2021/12/05 16:44:28;;;;;;;50.60;29.33;;;5.90;99.90;;;;;;4102489;29;20344;-91
2021/12/05 16:46:36;;;;;;;52.63;27.17;;;5.80;99.90;;;;;;4118305;28;20186;-91
2021/12/05 16:48:39;;;;;;;38.83;23.27;;;5.90;99.90;;;;;;4102572;29;20178;-93
2021/12/05 16:50:40;;;;;;;33.73;19.57;;;6.00;99.90;;;;;;4102390;29;20663;-91
2021/12/05 16:52:50;;;;;;;32.60;20.03;;;6.00;99.90;;;;;;4102402;28;20201;-92
2021/12/05 16:55:02;;;;;;;26.80;17.63;;;6.10;99.90;;;;;;4102410;29;20206;-92
2021/12/05 16:57:14;;;;;;;31.43;20.87;;;6.10;99.90;;;;;;4102472;29;20179;-91
2021/12/05 16:59:23;;;;;;;28.83;18.50;;;6.20;99.90;;;;;;4102303;29;20174;-91
2021/12/05 17:01:24;;;;;;;26.77;17.67;;;6.20;99.90;;;;;;4118273;28;20220;-92
2021/12/05 17:03:28;;;;;;;31.07;19.20;;;6.30;99.90;;;;;;4102253;29;20167;-91
2021/12/05 17:05:36;;;;;;;29.97;18.73;;;6.30;99.90;;;;;;4102302;29;20199;-91
2021/12/05 17:07:48;;;;;;;30.23;19.03;;;6.10;99.90;;;;;;4102219;28;20566;-92
2021/12/05 17:09:49;;;;;;;24.87;16.60;;;6.20;99.90;;;;;;4102071;29;20190;-93
2021/12/05 17:11:50;;;;;;;26.73;17.23;;;6.30;99.90;;;;;;4118099;28;20178;-93
2021/12/05 17:13:54;;;;;;;25.93;16.87;;;6.30;99.90;;;;;;4102103;29;20186;-92
2021/12/05 17:15:58;;;;;;;31.97;19.70;;;6.40;99.90;;;;;;4102009;29;20171;-93
2021/12/05 17:18:03;;;;;;;32.87;19.50;;;6.40;99.90;;;;;;4102172;29;20265;-92
2021/12/05 17:20:30;;;;;;;25.40;16.40;;;6.30;99.90;;;;;;4102412;29;20211;-92
2021/12/05 17:22:31;;;;;;;25.57;16.90;;;6.40;99.90;;;;;;4098610;28;20296;-93
2021/12/05 17:24:34;;;;;;;28.00;16.50;;;6.40;99.90;;;;;;4101368;29;20194;-91
2021/12/05 17:26:38;;;;;;;24.57;15.87;;;6.50;99.90;;;;;;4102160;29;20167;-92
2021/12/05 17:28:50;;;;;;;24.13;16.70;;;6.40;99.90;;;;;;4102429;29;20179;-92
2021/12/05 17:30:54;;;;;;;31.80;19.60;;;6.40;99.90;;;;;;4101785;28;20719;-92
2021/12/05 17:32:55;;;;;;;31.13;20.40;;;6.40;99.90;;;;;;4102010;29;20737;-92
2021/12/05 17:34:58;;;;;;;28.10;18.30;;;6.40;99.90;;;;;;4101774;29;20715;-92
2021/12/05 17:37:05;;;;;;;37.10;25.03;;;6.40;99.90;;;;;;4101818;29;20190;-91
2021/12/05 17:39:16;;;;;;;44.97;30.30;;;6.30;99.90;;;;;;4101703;29;20182;-92
2021/12/05 17:41:18;;;;;;;50.37;32.67;;;6.30;99.90;;;;;;4117561;28;20241;-92
2021/12/05 17:43:19;;;;;;;53.43;33.67;;;6.30;99.90;;;;;;4101747;29;20171;-91
2021/12/05 17:45:20;;;;;;;47.20;29.93;;;6.40;99.90;;;;;;4101703;29;20303;-93
2021/12/05 17:47:21;;;;;;;38.60;25.00;;;6.50;99.90;;;;;;4101848;29;20171;-92
2021/12/05 17:49:24;;;;;;;60.00;37.67;;;6.60;99.90;;;;;;4101811;28;20189;-92
2021/12/05 17:51:32;;;;;;;28.53;18.50;;;6.70;99.90;;;;;;4101742;29;20175;-92
2021/12/05 17:53:38;;;;;;;28.30;18.13;;;6.50;99.90;;;;;;4101763;29;20179;-92
2021/12/05 17:55:45;;;;;;;27.30;18.67;;;6.50;99.90;;;;;;4101714;29;20226;-92
2021/12/05 17:57:54;;;;;;;25.27;17.30;;;6.60;99.90;;;;;;4101554;29;20198;-91
2021/12/05 18:00:14;;;;;;;21.10;15.23;;;6.80;99.90;;;;;;4101519;29;20234;-92
2021/12/05 18:04:40;;;;;;;24.60;16.93;;;6.70;99.90;;;;;;4117023;28;20190;-92
2021/12/05 18:06:41;;;;;;;27.03;18.37;;;6.60;99.90;;;;;;4101517;29;20214;-92
2021/12/05 18:08:42;;;;;;;30.40;19.53;;;6.60;99.90;;;;;;4117176;28;20712;-94
2021/12/05 18:10:48;;;;;;;33.80;21.80;;;6.60;99.90;;;;;;4101200;29;20210;-92
2021/12/05 18:12:50;;;;;;;40.53;24.27;;;6.70;99.90;;;;;;4101415;29;20171;-94
2021/12/05 18:14:53;;;;;;;34.40;23.63;;;7.20;99.90;;;;;;4100593;29;20271;-93
2021/12/05 18:16:54;;;;;;;34.93;22.67;;;7.20;99.90;;;;;;4101114;29;20541;-93
2021/12/05 18:19:07;;;;;;;41.57;26.33;;;7.10;99.90;;;;;;4101545;29;20179;-91
2021/12/05 18:21:10;;;;;;;42.43;26.53;;;6.80;99.90;;;;;;4101040;29;20698;-92
2021/12/05 18:23:13;;;;;;;43.00;28.13;;;6.80;99.90;;;;;;4101011;29;20187;-91
2021/12/05 18:25:14;;;;;;;43.17;27.63;;;6.90;99.90;;;;;;4101109;29;20242;-91
2021/12/05 18:27:15;;;;;;;42.33;27.17;;;6.50;99.90;;;;;;4100947;29;20651;-91
2021/12/05 18:29:17;;;;;;;36.97;24.87;;;6.40;99.90;;;;;;4101018;29;20662;-91
2021/12/05 18:31:23;;;;;;;36.63;24.90;;;6.20;99.90;;;;;;4100723;29;20611;-91
2021/12/05 18:33:26;;;;;;;37.27;22.77;;;6.10;99.90;;;;;;4116916;28;20217;-91
2021/12/05 18:35:31;;;;;;;34.20;21.87;;;6.10;99.90;;;;;;4100633;28;20727;-90
2021/12/05 18:37:32;;;;;;;32.87;21.77;;;6.10;99.90;;;;;;4100922;29;20326;-93
2021/12/05 18:39:38;;;;;;;32.33;21.03;;;6.10;99.90;;;;;;4116731;28;20587;-92
2021/12/05 18:41:39;;;;;;;30.57;21.10;;;6.30;99.90;;;;;;4100761;29;20218;-92
2021/12/05 18:43:43;;;;;;;34.97;21.97;;;6.40;99.90;;;;;;4100635;29;20174;-92
2021/12/05 18:45:44;;;;;;;29.60;20.40;;;6.50;99.90;;;;;;4100618;29;20654;-92
2021/12/05 18:47:45;;;;;;;30.23;20.30;;;6.50;99.90;;;;;;4116756;28;20205;-92
2021/12/05 18:49:46;;;;;;;30.33;19.37;;;6.50;99.90;;;;;;4100639;28;20182;-94
2021/12/05 18:51:47;;;;;;;28.80;18.93;;;6.50;99.90;;;;;;4116562;28;20180;-93
2021/12/05 18:53:52;;;;;;;40.90;23.63;;;6.50;99.90;;;;;;4100451;29;20175;-93
2021/12/05 18:55:53;;;;;;;34.37;23.07;;;6.60;99.90;;;;;;4100528;29;20176;-91
2021/12/05 18:57:54;;;;;;;32.47;20.80;;;6.70;99.90;;;;;;4100422;29;20175;-90
2021/12/05 19:00:09;;;;;;;34.50;20.93;;;6.90;99.90;;;;;;4100612;29;20183;-91
2021/12/05 19:04:41;;;;;;;28.20;18.60;;;7.00;99.90;;;;;;4116637;28;20684;-92
2021/12/05 19:06:49;;;;;;;28.97;18.30;;;7.00;99.90;;;;;;4116566;28;20653;-91
2021/12/05 19:13:31;;;;;;;31.33;19.80;;;6.40;99.90;;;;;;4116679;28;20665;-91
2021/12/05 19:15:32;;;;;;;28.90;18.03;;;6.30;99.90;;;;;;4100199;29;20254;-92
2021/12/05 19:17:36;;;;;;;28.50;17.93;;;6.30;99.90;;;;;;4100311;29;20183;-92
2021/12/05 19:19:40;;;;;;;27.80;18.40;;;6.30;99.90;;;;;;4116286;28;20268;-91
2021/12/05 19:21:42;;;;;;;30.40;18.03;;;6.30;99.90;;;;;;4100227;29;20229;-92
2021/12/05 19:23:42;;;;;;;27.93;16.73;;;6.40;99.90;;;;;;4100284;29;20222;-91
2021/12/05 19:25:44;;;;;;;27.57;18.03;;;6.50;99.90;;;;;;4116421;28;20670;-93
2021/12/05 19:27:46;;;;;;;29.50;18.83;;;6.80;99.90;;;;;;4100762;29;20178;-92
2021/12/05 19:29:49;;;;;;;29.43;19.07;;;7.30;99.90;;;;;;4100190;29;20186;-92
2021/12/05 19:31:53;;;;;;;27.87;18.43;;;7.30;99.90;;;;;;4100313;29;20230;-91
2021/12/05 19:33:54;;;;;;;30.40;18.37;;;7.30;99.90;;;;;;4100110;28;20225;-92
2021/12/05 19:35:56;;;;;;;30.20;17.80;;;7.10;99.90;;;;;;4100030;29;20178;-92
2021/12/05 19:37:58;;;;;;;25.67;17.03;;;6.80;99.90;;;;;;4100057;29;20214;-92
2021/12/05 19:40:00;;;;;;;26.60;16.57;;;6.50;99.90;;;;;;4100210;29;20174;-92
2021/12/05 19:42:04;;;;;;;27.63;16.83;;;6.10;99.90;;;;;;4100085;29;20721;-93
2021/12/05 19:44:05;;;;;;;28.53;18.60;;;6.10;99.90;;;;;;4099999;29;20203;-92
2021/12/05 19:46:10;;;;;;;29.10;19.33;;;6.00;99.90;;;;;;4115373;28;20224;-92
2021/12/05 19:48:10;;;;;;;28.53;19.10;;;6.10;99.90;;;;;;4100093;29;20182;-91
2021/12/05 19:50:13;;;;;;;30.43;19.10;;;5.90;99.90;;;;;;4100119;29;20182;-91
2021/12/05 19:52:14;;;;;;;28.37;19.97;;;5.90;99.90;;;;;;4099803;29;20166;-92
2021/12/05 19:54:17;;;;;;;29.33;20.43;;;6.00;99.90;;;;;;4099928;29;20194;-92
2021/12/05 19:56:20;;;;;;;31.20;20.10;;;5.90;99.90;;;;;;4100148;29;20171;-91
2021/12/05 19:58:21;;;;;;;32.10;21.70;;;5.90;99.90;;;;;;4099973;29;20179;-92
2021/12/05 20:00:24;;;;;;;34.43;22.37;;;6.10;99.90;;;;;;4099802;29;20185;-91
2021/12/05 20:02:25;;;;;;;35.27;22.63;;;6.50;99.90;;;;;;4099963;29;20265;-92
2021/12/05 20:04:26;;;;;;;35.53;23.20;;;6.80;99.90;;;;;;4099601;29;20198;-91
2021/12/05 20:06:27;;;;;;;37.37;22.87;;;7.10;99.90;;;;;;4099992;29;20539;-92
2021/12/05 20:08:29;;;;;;;35.13;22.57;;;7.60;99.90;;;;;;4115701;28;20209;-92
2021/12/05 20:10:35;;;;;;;33.10;22.53;;;7.80;99.90;;;;;;4099665;29;20239;-91
2021/12/05 20:12:36;;;;;;;34.80;22.30;;;7.60;99.90;;;;;;4099857;29;20171;-93
2021/12/05 20:14:37;;;;;;;34.27;22.13;;;7.50;99.90;;;;;;4099810;29;20199;-92
2021/12/05 20:16:40;;;;;;;33.60;22.80;;;8.00;99.90;;;;;;4099953;29;20242;-91
2021/12/05 20:18:44;;;;;;;36.03;23.27;;;8.30;99.90;;;;;;4100348;29;20181;-93
2021/12/05 20:20:48;;;;;;;37.87;24.37;;;8.40;99.90;;;;;;4099947;29;20178;-91
2021/12/05 20:22:50;;;;;;;40.13;25.47;;;8.40;99.90;;;;;;4115970;28;20194;-91
2021/12/05 20:24:52;;;;;;;38.27;24.33;;;8.30;99.90;;;;;;4099737;29;20222;-92
2021/12/05 20:26:53;;;;;;;39.37;24.50;;;8.00;99.90;;;;;;4115890;28;20198;-92
2021/12/05 20:28:55;;;;;;;43.97;24.57;;;7.70;99.90;;;;;;4115738;28;20182;-93
2021/12/05 20:30:56;;;;;;;41.77;24.83;;;7.20;99.90;;;;;;4099860;29;20182;-92
2021/12/05 20:32:58;;;;;;;38.20;23.07;;;7.10;99.90;;;;;;4099757;29;20170;-92
2021/12/05 20:34:58;;;;;;;40.90;24.10;;;6.80;99.90;;;;;;4099477;29;20587;-92
2021/12/05 20:36:59;;;;;;;36.63;22.77;;;6.60;99.90;;;;;;4099717;29;20258;-91
2021/12/05 20:39:01;;;;;;;43.20;23.83;;;6.50;99.90;;;;;;4115670;28;20527;-92
2021/12/05 20:41:02;;;;;;;34.53;22.20;;;6.30;99.90;;;;;;4099665;28;20210;-91
2021/12/05 20:43:04;;;;;;;40.20;23.77;;;5.90;99.90;;;;;;4115396;28;20527;-91
2021/12/05 20:45:06;;;;;;;34.90;21.63;;;5.60;99.90;;;;;;4099538;29;20217;-92
2021/12/05 20:47:07;;;;;;;33.33;21.10;;;5.70;99.90;;;;;;4115454;28;20171;-92
2021/12/05 20:49:09;;;;;;;36.00;21.83;;;6.10;99.90;;;;;;4099804;29;20183;-93
2021/12/05 20:51:10;;;;;;;36.60;22.73;;;6.40;99.90;;;;;;4115502;28;20173;-91
2021/12/05 20:53:12;;;;;;;36.33;22.57;;;6.50;99.90;;;;;;4115612;28;20187;-91
2021/12/05 20:55:16;;;;;;;39.53;23.93;;;6.40;99.90;;;;;;4099242;29;20226;-91
2021/12/05 20:57:17;;;;;;;35.30;22.67;;;6.30;99.90;;;;;;4115917;28;20242;-91
2021/12/05 20:59:18;;;;;;;38.90;22.90;;;6.30;99.90;;;;;;4102188;29;20566;-92
2021/12/05 21:01:20;;;;;;;38.33;22.53;;;6.40;99.90;;;;;;4102252;29;20710;-91
2021/12/05 21:03:21;;;;;;;32.13;21.23;;;6.40;99.90;;;;;;4118394;28;20265;-91
2021/12/05 21:05:23;;;;;;;34.77;22.70;;;6.40;99.90;;;;;;4102514;29;20210;-91
2021/12/05 21:07:25;;;;;;;33.07;21.33;;;6.50;99.90;;;;;;4102335;29;20175;-91
2021/12/05 21:09:27;;;;;;;35.50;21.57;;;6.60;99.90;;;;;;4102189;29;20179;-92
2021/12/05 21:11:30;;;;;;;35.33;22.13;;;6.60;99.90;;;;;;4102226;29;20180;-92
2021/12/05 21:13:32;;;;;;;33.60;20.50;;;6.40;99.90;;;;;;4102219;29;20238;-92
2021/12/05 21:15:33;;;;;;;34.90;20.73;;;6.30;99.90;;;;;;4101929;29;20197;-91
2021/12/05 21:17:34;;;;;;;34.73;20.23;;;6.30;99.90;;;;;;4118131;28;20182;-92
2021/12/05 21:19:34;;;;;;;33.07;20.67;;;6.20;99.90;;;;;;4118032;28;20228;-92
2021/12/05 21:21:35;;;;;;;32.10;21.00;;;6.20;99.90;;;;;;4101894;29;20637;-91
2021/12/05 21:23:36;;;;;;;31.17;20.73;;;6.10;99.90;;;;;;4102000;29;20293;-92
2021/12/05 21:25:39;;;;;;;31.20;19.30;;;6.10;99.90;;;;;;4101795;29;20195;-92
2021/12/05 21:27:40;;;;;;;31.43;20.37;;;6.10;99.90;;;;;;4117885;28;20682;-92
2021/12/05 21:29:42;;;;;;;31.50;19.17;;;6.20;99.90;;;;;;4117737;28;20634;-93
2021/12/05 21:31:43;;;;;;;29.43;18.73;;;6.30;99.90;;;;;;4101702;28;20207;-91
2021/12/05 21:33:44;;;;;;;28.63;19.40;;;6.30;99.90;;;;;;4101674;29;20211;-91
2021/12/05 21:35:46;;;;;;;31.93;19.00;;;6.40;99.90;;;;;;4117956;28;20174;-91
2021/12/05 21:37:49;;;;;;;30.37;19.17;;;6.40;99.90;;;;;;4101723;29;20540;-91
2021/12/05 21:39:50;;;;;;;32.57;20.03;;;6.50;99.90;;;;;;4101780;29;20164;-90
2021/12/05 21:41:50;;;;;;;35.23;19.53;;;6.60;99.90;;;;;;4117418;28;20198;-92
2021/12/05 21:43:54;;;;;;;32.50;20.10;;;6.90;99.90;;;;;;4101540;29;20287;-93
2021/12/05 21:45:55;;;;;;;30.37;19.10;;;7.00;99.90;;;;;;4101645;29;20178;-92
2021/12/05 21:47:59;;;;;;;29.83;19.17;;;7.10;99.90;;;;;;4101572;29;20170;-91
2021/12/05 21:49:59;;;;;;;30.70;20.03;;;6.90;99.90;;;;;;4101594;29;20567;-92
2021/12/05 21:52:02;;;;;;;27.90;18.53;;;6.70;99.90;;;;;;4101241;29;20174;-91
2021/12/05 21:54:03;;;;;;;28.97;19.33;;;6.60;99.90;;;;;;4101537;29;20203;-93
2021/12/05 21:56:08;;;;;;;29.60;18.67;;;6.60;99.90;;;;;;4101738;29;20211;-92
2021/12/05 21:58:10;;;;;;;32.43;19.87;;;6.60;99.90;;;;;;4101632;29;20270;-92
2021/12/05 22:00:16;;;;;;;30.77;19.93;;;6.60;99.90;;;;;;4101765;29;20187;-92
2021/12/05 22:02:16;;;;;;;28.90;19.23;;;6.60;99.90;;;;;;4117540;28;20214;-92
2021/12/05 22:04:17;;;;;;;29.20;19.07;;;6.50;99.90;;;;;;4101377;29;20201;-91
2021/12/05 22:06:18;;;;;;;28.23;18.83;;;6.40;99.90;;;;;;4101395;29;20269;-92
2021/12/05 22:08:21;;;;;;;30.33;19.17;;;6.30;99.90;;;;;;4101480;29;20206;-92
2021/12/05 22:10:24;;;;;;;27.63;19.43;;;6.20;99.90;;;;;;4116899;28;20380;-91
2021/12/05 22:12:25;;;;;;;30.50;19.27;;;6.10;99.90;;;;;;4101189;29;20250;-91
2021/12/05 22:14:26;;;;;;;31.60;18.93;;;6.10;99.90;;;;;;4100921;29;20210;-92
2021/12/05 22:16:27;;;;;;;28.23;17.90;;;6.00;99.90;;;;;;4101550;29;20202;-91